sensor_id;sensor_type;location;lat;lon;timestamp;temperature;humidity
19060;DHT22;9663;48.996;8.334;2022-07-24T00:00:38;24.40;44.30
19060;DHT22;9663;48.996;8.334;2022-07-24T00:03:04;24.40;44.50
19060;DHT22;9663;48.996;8.334;2022-07-24T00:05:31;24.30;44.40
19060;DHT22;9663;48.996;8.334;2022-07-24T00:07:57;24.30;44.60
19060;DHT22;9663;48.996;8.334;2022-07-24T00:10:23;24.30;44.60
19060;DHT22;9663;48.996;8.334;2022-07-24T00:12:49;24.20;44.70
19060;DHT22;9663;48.996;8.334;2022-07-24T00:15:15;24.20;44.80
19060;DHT22;9663;48.996;8.334;2022-07-24T00:17:41;24.20;45.00
19060;DHT22;9663;48.996;8.334;2022-07-24T00:20:08;24.10;45.00
19060;DHT22;9663;48.996;8.334;2022-07-24T00:22:35;24.10;45.30
19060;DHT22;9663;48.996;8.334;2022-07-24T00:25:01;24.10;45.30
19060;DHT22;9663;48.996;8.334;2022-07-24T00:27:26;24.00;45.30
19060;DHT22;9663;48.996;8.334;2022-07-24T00:29:52;23.90;45.30
19060;DHT22;9663;48.996;8.334;2022-07-24T00:32:18;23.90;45.30
19060;DHT22;9663;48.996;8.334;2022-07-24T00:34:44;23.90;45.50
19060;DHT22;9663;48.996;8.334;2022-07-24T00:37:09;23.80;45.70
19060;DHT22;9663;48.996;8.334;2022-07-24T00:39:35;23.70;45.70
19060;DHT22;9663;48.996;8.334;2022-07-24T00:42:01;23.60;45.90
19060;DHT22;9663;48.996;8.334;2022-07-24T00:44:27;23.60;45.90
19060;DHT22;9663;48.996;8.334;2022-07-24T00:46:53;23.60;46.10
19060;DHT22;9663;48.996;8.334;2022-07-24T00:49:19;23.50;46.20
19060;DHT22;9663;48.996;8.334;2022-07-24T00:51:48;23.50;46.40
19060;DHT22;9663;48.996;8.334;2022-07-24T00:54:20;23.40;46.50
19060;DHT22;9663;48.996;8.334;2022-07-24T00:56:48;23.40;46.60
19060;DHT22;9663;48.996;8.334;2022-07-24T00:59:15;23.40;46.70
19060;DHT22;9663;48.996;8.334;2022-07-24T01:01:42;23.40;46.80
19060;DHT22;9663;48.996;8.334;2022-07-24T01:04:08;23.30;46.90
19060;DHT22;9663;48.996;8.334;2022-07-24T01:06:34;23.30;46.90
19060;DHT22;9663;48.996;8.334;2022-07-24T01:09:00;23.30;47.00
19060;DHT22;9663;48.996;8.334;2022-07-24T01:11:26;23.20;47.10
19060;DHT22;9663;48.996;8.334;2022-07-24T01:13:53;23.20;47.30
19060;DHT22;9663;48.996;8.334;2022-07-24T01:16:20;23.10;47.30
19060;DHT22;9663;48.996;8.334;2022-07-24T01:18:45;23.10;47.30
19060;DHT22;9663;48.996;8.334;2022-07-24T01:21:11;23.10;47.40
19060;DHT22;9663;48.996;8.334;2022-07-24T01:23:37;23.10;47.50
19060;DHT22;9663;48.996;8.334;2022-07-24T01:26:06;23.10;47.60
19060;DHT22;9663;48.996;8.334;2022-07-24T01:28:33;23.00;47.90
19060;DHT22;9663;48.996;8.334;2022-07-24T01:30:59;23.00;47.60
19060;DHT22;9663;48.996;8.334;2022-07-24T01:33:24;22.90;47.70
19060;DHT22;9663;48.996;8.334;2022-07-24T01:35:50;22.80;47.80
19060;DHT22;9663;48.996;8.334;2022-07-24T01:38:17;22.80;47.90
19060;DHT22;9663;48.996;8.334;2022-07-24T01:40:44;22.80;48.00
19060;DHT22;9663;48.996;8.334;2022-07-24T01:43:10;22.70;48.20
19060;DHT22;9663;48.996;8.334;2022-07-24T01:45:36;22.70;48.30
19060;DHT22;9663;48.996;8.334;2022-07-24T01:48:03;22.60;48.20
19060;DHT22;9663;48.996;8.334;2022-07-24T01:50:30;22.50;48.50
19060;DHT22;9663;48.996;8.334;2022-07-24T01:52:56;22.50;48.50
19060;DHT22;9663;48.996;8.334;2022-07-24T01:55:22;22.40;48.60
19060;DHT22;9663;48.996;8.334;2022-07-24T01:57:48;22.40;48.80
19060;DHT22;9663;48.996;8.334;2022-07-24T02:00:15;22.30;48.80
19060;DHT22;9663;48.996;8.334;2022-07-24T02:02:43;22.30;49.10
19060;DHT22;9663;48.996;8.334;2022-07-24T02:05:13;22.20;49.10
19060;DHT22;9663;48.996;8.334;2022-07-24T02:07:41;22.20;49.50
19060;DHT22;9663;48.996;8.334;2022-07-24T02:10:09;22.20;49.30
19060;DHT22;9663;48.996;8.334;2022-07-24T02:12:36;22.20;49.40
19060;DHT22;9663;48.996;8.334;2022-07-24T02:15:03;22.20;49.50
19060;DHT22;9663;48.996;8.334;2022-07-24T02:17:30;22.20;49.70
19060;DHT22;9663;48.996;8.334;2022-07-24T02:19:56;22.10;49.60
19060;DHT22;9663;48.996;8.334;2022-07-24T02:22:21;22.10;49.70
19060;DHT22;9663;48.996;8.334;2022-07-24T02:24:47;22.10;49.80
19060;DHT22;9663;48.996;8.334;2022-07-24T02:27:13;22.10;49.90
19060;DHT22;9663;48.996;8.334;2022-07-24T02:29:39;22.00;49.90
19060;DHT22;9663;48.996;8.334;2022-07-24T02:32:05;22.10;50.10
19060;DHT22;9663;48.996;8.334;2022-07-24T02:34:32;22.10;50.20
19060;DHT22;9663;48.996;8.334;2022-07-24T02:36:58;22.10;50.30
19060;DHT22;9663;48.996;8.334;2022-07-24T02:39:23;22.10;50.40
19060;DHT22;9663;48.996;8.334;2022-07-24T02:41:49;22.00;50.40
19060;DHT22;9663;48.996;8.334;2022-07-24T02:44:14;22.00;50.50
19060;DHT22;9663;48.996;8.334;2022-07-24T02:46:41;22.00;50.60
19060;DHT22;9663;48.996;8.334;2022-07-24T02:49:07;22.00;50.60
19060;DHT22;9663;48.996;8.334;2022-07-24T02:51:32;22.00;50.70
19060;DHT22;9663;48.996;8.334;2022-07-24T02:53:58;22.00;50.70
19060;DHT22;9663;48.996;8.334;2022-07-24T02:56:24;22.10;50.80
19060;DHT22;9663;48.996;8.334;2022-07-24T02:58:49;22.00;50.70
19060;DHT22;9663;48.996;8.334;2022-07-24T03:01:15;22.00;50.80
19060;DHT22;9663;48.996;8.334;2022-07-24T03:03:41;22.00;50.80
19060;DHT22;9663;48.996;8.334;2022-07-24T03:06:07;22.00;50.80
19060;DHT22;9663;48.996;8.334;2022-07-24T03:08:32;21.90;50.80
19060;DHT22;9663;48.996;8.334;2022-07-24T03:10:58;22.00;50.90
19060;DHT22;9663;48.996;8.334;2022-07-24T03:13:24;21.90;50.90
19060;DHT22;9663;48.996;8.334;2022-07-24T03:15:50;21.80;50.90
19060;DHT22;9663;48.996;8.334;2022-07-24T03:18:15;21.80;50.90
19060;DHT22;9663;48.996;8.334;2022-07-24T03:20:41;21.80;51.00
19060;DHT22;9663;48.996;8.334;2022-07-24T03:23:07;21.70;51.00
19060;DHT22;9663;48.996;8.334;2022-07-24T03:25:32;21.70;51.10
19060;DHT22;9663;48.996;8.334;2022-07-24T03:27:58;21.60;51.10
19060;DHT22;9663;48.996;8.334;2022-07-24T03:30:24;21.60;51.20
19060;DHT22;9663;48.996;8.334;2022-07-24T03:32:49;21.50;51.30
19060;DHT22;9663;48.996;8.334;2022-07-24T03:35:15;21.50;51.40
19060;DHT22;9663;48.996;8.334;2022-07-24T03:37:41;21.40;51.40
19060;DHT22;9663;48.996;8.334;2022-07-24T03:40:07;21.40;51.60
19060;DHT22;9663;48.996;8.334;2022-07-24T03:42:33;21.30;52.40
19060;DHT22;9663;48.996;8.334;2022-07-24T03:44:59;21.40;51.70
19060;DHT22;9663;48.996;8.334;2022-07-24T03:47:25;21.30;51.70
19060;DHT22;9663;48.996;8.334;2022-07-24T03:49:50;21.20;51.80
19060;DHT22;9663;48.996;8.334;2022-07-24T03:52:16;21.20;51.90
19060;DHT22;9663;48.996;8.334;2022-07-24T03:54:42;21.20;52.10
19060;DHT22;9663;48.996;8.334;2022-07-24T03:57:07;21.10;52.10
19060;DHT22;9663;48.996;8.334;2022-07-24T03:59:34;21.10;52.10
19060;DHT22;9663;48.996;8.334;2022-07-24T04:02:00;21.00;52.20
19060;DHT22;9663;48.996;8.334;2022-07-24T04:04:25;21.00;52.30
19060;DHT22;9663;48.996;8.334;2022-07-24T04:06:51;21.00;52.50
19060;DHT22;9663;48.996;8.334;2022-07-24T04:09:17;21.00;52.50
19060;DHT22;9663;48.996;8.334;2022-07-24T04:11:43;20.90;52.60
19060;DHT22;9663;48.996;8.334;2022-07-24T04:14:10;21.00;52.70
19060;DHT22;9663;48.996;8.334;2022-07-24T04:16:35;21.00;52.80
19060;DHT22;9663;48.996;8.334;2022-07-24T04:19:01;20.90;52.80
19060;DHT22;9663;48.996;8.334;2022-07-24T04:21:28;20.90;52.90
19060;DHT22;9663;48.996;8.334;2022-07-24T04:23:54;20.90;52.90
19060;DHT22;9663;48.996;8.334;2022-07-24T04:26:19;20.90;53.00
19060;DHT22;9663;48.996;8.334;2022-07-24T04:28:45;20.90;53.10
19060;DHT22;9663;48.996;8.334;2022-07-24T04:31:11;20.90;53.20
19060;DHT22;9663;48.996;8.334;2022-07-24T04:33:36;21.00;53.20
19060;DHT22;9663;48.996;8.334;2022-07-24T04:36:03;21.00;53.20
19060;DHT22;9663;48.996;8.334;2022-07-24T04:38:32;21.00;53.30
19060;DHT22;9663;48.996;8.334;2022-07-24T04:40:58;21.00;53.50
19060;DHT22;9663;48.996;8.334;2022-07-24T04:43:24;21.10;53.40
19060;DHT22;9663;48.996;8.334;2022-07-24T04:45:50;21.10;53.40
19060;DHT22;9663;48.996;8.334;2022-07-24T04:48:16;21.10;53.50
19060;DHT22;9663;48.996;8.334;2022-07-24T04:50:41;21.20;53.50
19060;DHT22;9663;48.996;8.334;2022-07-24T04:53:07;21.20;53.50
19060;DHT22;9663;48.996;8.334;2022-07-24T04:55:32;21.30;53.60
19060;DHT22;9663;48.996;8.334;2022-07-24T04:57:58;21.30;53.60
19060;DHT22;9663;48.996;8.334;2022-07-24T05:00:24;21.30;53.60
19060;DHT22;9663;48.996;8.334;2022-07-24T05:02:50;21.40;53.70
19060;DHT22;9663;48.996;8.334;2022-07-24T05:05:15;21.40;53.60
19060;DHT22;9663;48.996;8.334;2022-07-24T05:07:41;21.60;53.70
19060;DHT22;9663;48.996;8.334;2022-07-24T05:10:07;21.60;53.70
19060;DHT22;9663;48.996;8.334;2022-07-24T05:12:33;21.70;53.80
19060;DHT22;9663;48.996;8.334;2022-07-24T05:14:59;21.70;53.80
19060;DHT22;9663;48.996;8.334;2022-07-24T05:17:25;21.80;53.80
19060;DHT22;9663;48.996;8.334;2022-07-24T05:19:51;21.90;53.70
19060;DHT22;9663;48.996;8.334;2022-07-24T05:22:16;22.00;53.70
19060;DHT22;9663;48.996;8.334;2022-07-24T05:24:42;22.00;53.70
19060;DHT22;9663;48.996;8.334;2022-07-24T05:27:08;22.20;53.70
19060;DHT22;9663;48.996;8.334;2022-07-24T05:29:33;22.20;53.70
19060;DHT22;9663;48.996;8.334;2022-07-24T05:31:59;22.30;53.60
19060;DHT22;9663;48.996;8.334;2022-07-24T05:34:25;22.40;53.50
19060;DHT22;9663;48.996;8.334;2022-07-24T05:36:50;22.50;53.50
19060;DHT22;9663;48.996;8.334;2022-07-24T05:39:16;22.60;53.50
19060;DHT22;9663;48.996;8.334;2022-07-24T05:41:42;22.70;53.50
19060;DHT22;9663;48.996;8.334;2022-07-24T05:44:08;22.70;53.50
19060;DHT22;9663;48.996;8.334;2022-07-24T05:46:33;22.80;53.40
19060;DHT22;9663;48.996;8.334;2022-07-24T05:48:59;22.90;53.40
19060;DHT22;9663;48.996;8.334;2022-07-24T05:51:24;23.00;53.40
19060;DHT22;9663;48.996;8.334;2022-07-24T05:53:51;23.10;53.40
19060;DHT22;9663;48.996;8.334;2022-07-24T05:56:17;23.20;53.30
19060;DHT22;9663;48.996;8.334;2022-07-24T05:58:43;23.20;53.20
19060;DHT22;9663;48.996;8.334;2022-07-24T06:01:09;23.30;53.20
19060;DHT22;9663;48.996;8.334;2022-07-24T06:03:35;23.40;53.20
19060;DHT22;9663;48.996;8.334;2022-07-24T06:06:03;23.50;53.10
19060;DHT22;9663;48.996;8.334;2022-07-24T06:08:30;23.50;53.00
19060;DHT22;9663;48.996;8.334;2022-07-24T06:10:56;23.60;53.00
19060;DHT22;9663;48.996;8.334;2022-07-24T06:13:21;23.70;52.90
19060;DHT22;9663;48.996;8.334;2022-07-24T06:15:47;23.70;52.80
19060;DHT22;9663;48.996;8.334;2022-07-24T06:18:13;23.80;52.80
19060;DHT22;9663;48.996;8.334;2022-07-24T06:20:38;23.80;52.80
19060;DHT22;9663;48.996;8.334;2022-07-24T06:23:04;23.90;52.70
19060;DHT22;9663;48.996;8.334;2022-07-24T06:25:30;24.00;52.60
19060;DHT22;9663;48.996;8.334;2022-07-24T06:27:55;24.10;52.60
19060;DHT22;9663;48.996;8.334;2022-07-24T06:30:27;24.10;52.40
19060;DHT22;9663;48.996;8.334;2022-07-24T06:32:55;24.10;52.40
19060;DHT22;9663;48.996;8.334;2022-07-24T06:35:24;24.20;52.20
19060;DHT22;9663;48.996;8.334;2022-07-24T06:37:50;24.30;52.10
19060;DHT22;9663;48.996;8.334;2022-07-24T06:40:17;24.40;52.10
19060;DHT22;9663;48.996;8.334;2022-07-24T06:42:45;24.40;52.00
19060;DHT22;9663;48.996;8.334;2022-07-24T06:45:13;24.50;51.80
19060;DHT22;9663;48.996;8.334;2022-07-24T06:47:39;24.60;51.80
19060;DHT22;9663;48.996;8.334;2022-07-24T06:50:06;24.70;51.70
19060;DHT22;9663;48.996;8.334;2022-07-24T06:52:33;24.80;51.60
19060;DHT22;9663;48.996;8.334;2022-07-24T06:54:59;24.90;51.60
19060;DHT22;9663;48.996;8.334;2022-07-24T06:57:25;25.00;51.70
19060;DHT22;9663;48.996;8.334;2022-07-24T06:59:52;25.00;51.60
19060;DHT22;9663;48.996;8.334;2022-07-24T07:02:19;25.10;51.50
19060;DHT22;9663;48.996;8.334;2022-07-24T07:04:46;25.30;51.40
19060;DHT22;9663;48.996;8.334;2022-07-24T07:07:12;25.30;51.30
19060;DHT22;9663;48.996;8.334;2022-07-24T07:09:38;25.50;51.30
19060;DHT22;9663;48.996;8.334;2022-07-24T07:12:04;25.60;51.30
19060;DHT22;9663;48.996;8.334;2022-07-24T07:14:30;25.70;51.30
19060;DHT22;9663;48.996;8.334;2022-07-24T07:16:56;25.80;51.20
19060;DHT22;9663;48.996;8.334;2022-07-24T07:19:22;25.90;51.20
19060;DHT22;9663;48.996;8.334;2022-07-24T07:21:48;26.00;51.00
19060;DHT22;9663;48.996;8.334;2022-07-24T07:24:13;26.10;50.70
19060;DHT22;9663;48.996;8.334;2022-07-24T07:26:39;26.10;50.60
19060;DHT22;9663;48.996;8.334;2022-07-24T07:29:05;26.20;50.60
19060;DHT22;9663;48.996;8.334;2022-07-24T07:31:30;26.30;50.50
19060;DHT22;9663;48.996;8.334;2022-07-24T07:33:56;26.40;50.20
19060;DHT22;9663;48.996;8.334;2022-07-24T07:36:23;26.40;50.10
19060;DHT22;9663;48.996;8.334;2022-07-24T07:38:50;26.50;50.00
19060;DHT22;9663;48.996;8.334;2022-07-24T07:41:15;26.60;50.00
19060;DHT22;9663;48.996;8.334;2022-07-24T07:43:47;26.60;49.80
19060;DHT22;9663;48.996;8.334;2022-07-24T07:46:13;26.70;49.90
19060;DHT22;9663;48.996;8.334;2022-07-24T07:48:40;26.70;49.90
19060;DHT22;9663;48.996;8.334;2022-07-24T07:51:06;26.80;49.70
19060;DHT22;9663;48.996;8.334;2022-07-24T07:53:39;26.90;49.70
19060;DHT22;9663;48.996;8.334;2022-07-24T07:56:05;27.00;49.40
19060;DHT22;9663;48.996;8.334;2022-07-24T07:58:31;27.00;49.40
19060;DHT22;9663;48.996;8.334;2022-07-24T08:00:56;27.10;49.30
19060;DHT22;9663;48.996;8.334;2022-07-24T08:03:22;27.10;49.30
19060;DHT22;9663;48.996;8.334;2022-07-24T08:05:48;27.30;50.10
19060;DHT22;9663;48.996;8.334;2022-07-24T08:08:14;27.40;49.40
19060;DHT22;9663;48.996;8.334;2022-07-24T08:10:40;27.60;49.20
19060;DHT22;9663;48.996;8.334;2022-07-24T08:13:06;27.70;49.10
19060;DHT22;9663;48.996;8.334;2022-07-24T08:15:32;27.80;48.90
19060;DHT22;9663;48.996;8.334;2022-07-24T08:17:58;27.90;48.80
19060;DHT22;9663;48.996;8.334;2022-07-24T08:20:26;27.90;48.50
19060;DHT22;9663;48.996;8.334;2022-07-24T08:22:52;28.00;48.30
19060;DHT22;9663;48.996;8.334;2022-07-24T08:25:18;28.00;48.20
19060;DHT22;9663;48.996;8.334;2022-07-24T08:27:45;28.10;48.20
19060;DHT22;9663;48.996;8.334;2022-07-24T08:30:11;28.10;48.10
19060;DHT22;9663;48.996;8.334;2022-07-24T08:32:37;28.20;48.20
19060;DHT22;9663;48.996;8.334;2022-07-24T08:35:04;28.30;48.40
19060;DHT22;9663;48.996;8.334;2022-07-24T08:37:37;28.30;48.20
19060;DHT22;9663;48.996;8.334;2022-07-24T08:40:06;28.50;48.00
19060;DHT22;9663;48.996;8.334;2022-07-24T08:42:33;28.60;48.10
19060;DHT22;9663;48.996;8.334;2022-07-24T08:44:59;28.70;47.90
19060;DHT22;9663;48.996;8.334;2022-07-24T08:47:26;28.80;47.60
19060;DHT22;9663;48.996;8.334;2022-07-24T08:49:54;28.80;47.50
19060;DHT22;9663;48.996;8.334;2022-07-24T08:52:25;28.90;47.40
19060;DHT22;9663;48.996;8.334;2022-07-24T08:54:52;28.90;47.10
19060;DHT22;9663;48.996;8.334;2022-07-24T08:57:18;29.00;47.20
19060;DHT22;9663;48.996;8.334;2022-07-24T08:59:44;29.00;47.00
19060;DHT22;9663;48.996;8.334;2022-07-24T09:02:11;29.00;46.90
19060;DHT22;9663;48.996;8.334;2022-07-24T09:07:08;29.20;47.00
19060;DHT22;9663;48.996;8.334;2022-07-24T09:09:37;29.20;46.90
19060;DHT22;9663;48.996;8.334;2022-07-24T09:12:07;29.30;47.00
19060;DHT22;9663;48.996;8.334;2022-07-24T09:14:43;29.50;46.80
19060;DHT22;9663;48.996;8.334;2022-07-24T09:17:17;29.60;46.80
19060;DHT22;9663;48.996;8.334;2022-07-24T09:19:57;29.70;46.40
19060;DHT22;9663;48.996;8.334;2022-07-24T09:22:25;29.80;46.30
19060;DHT22;9663;48.996;8.334;2022-07-24T09:25:18;30.00;46.40
19060;DHT22;9663;48.996;8.334;2022-07-24T09:27:51;30.10;45.30
19060;DHT22;9663;48.996;8.334;2022-07-24T09:30:34;30.20;45.50
19060;DHT22;9663;48.996;8.334;2022-07-24T09:35:42;30.30;45.40
19060;DHT22;9663;48.996;8.334;2022-07-24T09:38:18;30.40;45.30
19060;DHT22;9663;48.996;8.334;2022-07-24T09:40:53;30.30;44.30
19060;DHT22;9663;48.996;8.334;2022-07-24T09:48:38;30.60;44.60
19060;DHT22;9663;48.996;8.334;2022-07-24T09:51:17;30.60;44.40
19060;DHT22;9663;48.996;8.334;2022-07-24T09:53:45;30.70;43.80
19060;DHT22;9663;48.996;8.334;2022-07-24T09:56:15;30.80;44.20
19060;DHT22;9663;48.996;8.334;2022-07-24T10:01:11;31.00;43.90
19060;DHT22;9663;48.996;8.334;2022-07-24T10:03:40;31.10;43.90
19060;DHT22;9663;48.996;8.334;2022-07-24T10:06:09;31.20;43.90
19060;DHT22;9663;48.996;8.334;2022-07-24T10:08:38;31.20;43.70
19060;DHT22;9663;48.996;8.334;2022-07-24T10:11:06;31.30;43.60
19060;DHT22;9663;48.996;8.334;2022-07-24T10:13:33;31.40;43.30
19060;DHT22;9663;48.996;8.334;2022-07-24T10:18:59;31.50;43.10
19060;DHT22;9663;48.996;8.334;2022-07-24T10:21:30;31.50;42.60
19060;DHT22;9663;48.996;8.334;2022-07-24T10:26:37;31.70;42.90
19060;DHT22;9663;48.996;8.334;2022-07-24T10:29:18;31.70;42.70
19060;DHT22;9663;48.996;8.334;2022-07-24T10:31:56;31.90;42.60
19060;DHT22;9663;48.996;8.334;2022-07-24T10:37:22;32.10;42.30
19060;DHT22;9663;48.996;8.334;2022-07-24T10:45:35;32.40;41.40
19060;DHT22;9663;48.996;8.334;2022-07-24T10:51:00;32.60;40.40
19060;DHT22;9663;48.996;8.334;2022-07-24T10:56:19;32.70;39.90
19060;DHT22;9663;48.996;8.334;2022-07-24T11:01:44;32.90;40.10
19060;DHT22;9663;48.996;8.334;2022-07-24T11:07:09;33.10;40.10
19060;DHT22;9663;48.996;8.334;2022-07-24T11:10:00;33.20;39.20
19060;DHT22;9663;48.996;8.334;2022-07-24T11:12:33;33.40;39.30
19060;DHT22;9663;48.996;8.334;2022-07-24T11:15:07;33.50;39.90
19060;DHT22;9663;48.996;8.334;2022-07-24T11:17:52;33.60;39.30
19060;DHT22;9663;48.996;8.334;2022-07-24T11:20:21;33.60;39.40
19060;DHT22;9663;48.996;8.334;2022-07-24T11:22:49;33.70;39.30
19060;DHT22;9663;48.996;8.334;2022-07-24T11:25:27;33.80;39.00
19060;DHT22;9663;48.996;8.334;2022-07-24T11:27:57;33.90;38.20
19060;DHT22;9663;48.996;8.334;2022-07-24T11:30:26;34.00;39.00
19060;DHT22;9663;48.996;8.334;2022-07-24T11:32:54;34.20;39.30
19060;DHT22;9663;48.996;8.334;2022-07-24T11:35:33;34.60;39.70
19060;DHT22;9663;48.996;8.334;2022-07-24T11:38:02;35.20;39.60
19060;DHT22;9663;48.996;8.334;2022-07-24T11:40:30;35.90;39.50
19060;DHT22;9663;48.996;8.334;2022-07-24T11:43:02;36.70;39.00
19060;DHT22;9663;48.996;8.334;2022-07-24T11:45:30;37.30;37.20
19060;DHT22;9663;48.996;8.334;2022-07-24T11:47:56;37.90;37.80
19060;DHT22;9663;48.996;8.334;2022-07-24T11:50:25;38.40;37.30
19060;DHT22;9663;48.996;8.334;2022-07-24T11:52:52;38.80;36.40
19060;DHT22;9663;48.996;8.334;2022-07-24T11:55:21;39.30;35.60
19060;DHT22;9663;48.996;8.334;2022-07-24T11:57:52;39.50;34.90
19060;DHT22;9663;48.996;8.334;2022-07-24T12:00:22;39.80;34.20
19060;DHT22;9663;48.996;8.334;2022-07-24T12:02:52;40.00;33.50
19060;DHT22;9663;48.996;8.334;2022-07-24T12:05:27;40.20;33.30
19060;DHT22;9663;48.996;8.334;2022-07-24T12:07:56;40.50;32.00
19060;DHT22;9663;48.996;8.334;2022-07-24T12:10:24;40.70;30.10
19060;DHT22;9663;48.996;8.334;2022-07-24T12:12:52;40.90;31.10
19060;DHT22;9663;48.996;8.334;2022-07-24T12:15:21;41.20;31.30
19060;DHT22;9663;48.996;8.334;2022-07-24T12:18:03;41.50;31.50
19060;DHT22;9663;48.996;8.334;2022-07-24T12:20:39;41.90;30.00
19060;DHT22;9663;48.996;8.334;2022-07-24T12:23:09;42.30;30.40
19060;DHT22;9663;48.996;8.334;2022-07-24T12:25:36;42.70;30.60
19060;DHT22;9663;48.996;8.334;2022-07-24T12:28:16;43.10;29.70
19060;DHT22;9663;48.996;8.334;2022-07-24T12:30:52;43.30;28.10
19060;DHT22;9663;48.996;8.334;2022-07-24T12:33:24;43.40;28.30
19060;DHT22;9663;48.996;8.334;2022-07-24T12:36:02;43.60;28.40
19060;DHT22;9663;48.996;8.334;2022-07-24T12:38:38;43.60;27.50
19060;DHT22;9663;48.996;8.334;2022-07-24T12:41:16;43.60;27.90
19060;DHT22;9663;48.996;8.334;2022-07-24T12:43:52;43.40;26.30
19060;DHT22;9663;48.996;8.334;2022-07-24T12:46:29;43.60;26.70
19060;DHT22;9663;48.996;8.334;2022-07-24T12:51:53;43.70;26.10
19060;DHT22;9663;48.996;8.334;2022-07-24T12:54:27;43.70;25.80
19060;DHT22;9663;48.996;8.334;2022-07-24T12:56:59;43.80;26.70
19060;DHT22;9663;48.996;8.334;2022-07-24T12:59:32;43.90;26.40
19060;DHT22;9663;48.996;8.334;2022-07-24T13:02:19;44.00;26.30
19060;DHT22;9663;48.996;8.334;2022-07-24T13:04:52;43.90;25.00
19060;DHT22;9663;48.996;8.334;2022-07-24T13:07:21;43.70;25.20
19060;DHT22;9663;48.996;8.334;2022-07-24T13:09:49;43.60;25.40
19060;DHT22;9663;48.996;8.334;2022-07-24T13:12:16;43.60;25.60
19060;DHT22;9663;48.996;8.334;2022-07-24T13:14:43;43.50;25.40
19060;DHT22;9663;48.996;8.334;2022-07-24T13:17:14;43.60;25.70
19060;DHT22;9663;48.996;8.334;2022-07-24T13:19:49;43.70;25.30
19060;DHT22;9663;48.996;8.334;2022-07-24T13:22:16;43.70;25.00
19060;DHT22;9663;48.996;8.334;2022-07-24T13:24:43;43.70;25.10
19060;DHT22;9663;48.996;8.334;2022-07-24T13:27:11;43.80;25.00
19060;DHT22;9663;48.996;8.334;2022-07-24T13:29:40;43.90;25.00
19060;DHT22;9663;48.996;8.334;2022-07-24T13:32:06;43.90;25.00
19060;DHT22;9663;48.996;8.334;2022-07-24T13:34:32;44.20;25.10
19060;DHT22;9663;48.996;8.334;2022-07-24T13:36:58;44.30;24.90
19060;DHT22;9663;48.996;8.334;2022-07-24T13:39:25;44.50;24.80
19060;DHT22;9663;48.996;8.334;2022-07-24T13:41:50;44.70;24.60
19060;DHT22;9663;48.996;8.334;2022-07-24T13:44:16;44.80;23.90
19060;DHT22;9663;48.996;8.334;2022-07-24T13:46:42;44.80;23.70
19060;DHT22;9663;48.996;8.334;2022-07-24T13:49:08;44.70;23.60
19060;DHT22;9663;48.996;8.334;2022-07-24T13:51:35;44.60;23.50
19060;DHT22;9663;48.996;8.334;2022-07-24T13:54:01;44.60;23.60
19060;DHT22;9663;48.996;8.334;2022-07-24T13:56:28;44.70;23.70
19060;DHT22;9663;48.996;8.334;2022-07-24T13:58:53;44.70;23.60
19060;DHT22;9663;48.996;8.334;2022-07-24T14:01:19;44.60;23.60
19060;DHT22;9663;48.996;8.334;2022-07-24T14:03:45;44.30;23.10
19060;DHT22;9663;48.996;8.334;2022-07-24T14:06:12;44.00;23.10
19060;DHT22;9663;48.996;8.334;2022-07-24T14:08:39;43.70;23.30
19060;DHT22;9663;48.996;8.334;2022-07-24T14:11:06;43.50;23.30
19060;DHT22;9663;48.996;8.334;2022-07-24T14:13:33;43.20;23.30
19060;DHT22;9663;48.996;8.334;2022-07-24T14:15:59;43.00;23.40
19060;DHT22;9663;48.996;8.334;2022-07-24T14:18:25;42.80;23.50
19060;DHT22;9663;48.996;8.334;2022-07-24T14:20:51;42.70;23.40
19060;DHT22;9663;48.996;8.334;2022-07-24T14:23:17;42.70;23.60
19060;DHT22;9663;48.996;8.334;2022-07-24T14:25:43;42.60;23.60
19060;DHT22;9663;48.996;8.334;2022-07-24T14:28:10;42.80;23.80
19060;DHT22;9663;48.996;8.334;2022-07-24T14:30:36;43.10;23.80
19060;DHT22;9663;48.996;8.334;2022-07-24T14:33:02;43.60;23.80
19060;DHT22;9663;48.996;8.334;2022-07-24T14:35:28;44.10;23.40
19060;DHT22;9663;48.996;8.334;2022-07-24T14:37:56;44.60;23.10
19060;DHT22;9663;48.996;8.334;2022-07-24T14:40:22;44.90;22.80
19060;DHT22;9663;48.996;8.334;2022-07-24T14:42:48;45.10;22.50
19060;DHT22;9663;48.996;8.334;2022-07-24T14:45:14;45.40;22.10
19060;DHT22;9663;48.996;8.334;2022-07-24T14:47:39;45.60;22.20
19060;DHT22;9663;48.996;8.334;2022-07-24T14:50:07;45.60;21.90
19060;DHT22;9663;48.996;8.334;2022-07-24T14:52:35;45.70;21.70
19060;DHT22;9663;48.996;8.334;2022-07-24T14:55:01;45.80;21.80
19060;DHT22;9663;48.996;8.334;2022-07-24T14:57:27;46.10;21.80
19060;DHT22;9663;48.996;8.334;2022-07-24T14:59:52;46.30;21.90
19060;DHT22;9663;48.996;8.334;2022-07-24T15:02:18;46.60;21.80
19060;DHT22;9663;48.996;8.334;2022-07-24T15:04:44;46.90;21.60
19060;DHT22;9663;48.996;8.334;2022-07-24T15:07:09;47.30;21.40
19060;DHT22;9663;48.996;8.334;2022-07-24T15:09:35;47.60;21.20
19060;DHT22;9663;48.996;8.334;2022-07-24T15:12:01;48.00;21.10
19060;DHT22;9663;48.996;8.334;2022-07-24T15:14:27;48.20;20.60
19060;DHT22;9663;48.996;8.334;2022-07-24T15:16:52;48.40;20.20
19060;DHT22;9663;48.996;8.334;2022-07-24T15:19:18;48.30;20.00
19060;DHT22;9663;48.996;8.334;2022-07-24T15:21:44;48.30;19.60
19060;DHT22;9663;48.996;8.334;2022-07-24T15:24:10;48.40;19.90
19060;DHT22;9663;48.996;8.334;2022-07-24T15:26:36;48.50;19.80
19060;DHT22;9663;48.996;8.334;2022-07-24T15:29:03;48.60;19.60
19060;DHT22;9663;48.996;8.334;2022-07-24T15:31:29;48.70;19.70
19060;DHT22;9663;48.996;8.334;2022-07-24T15:33:55;49.00;19.80
19060;DHT22;9663;48.996;8.334;2022-07-24T15:36:20;49.20;19.60
19060;DHT22;9663;48.996;8.334;2022-07-24T15:38:46;49.60;19.60
19060;DHT22;9663;48.996;8.334;2022-07-24T15:41:12;49.70;19.30
19060;DHT22;9663;48.996;8.334;2022-07-24T15:43:37;50.00;19.10
19060;DHT22;9663;48.996;8.334;2022-07-24T15:46:03;50.00;18.90
19060;DHT22;9663;48.996;8.334;2022-07-24T15:48:29;50.10;18.80
19060;DHT22;9663;48.996;8.334;2022-07-24T15:50:54;50.20;18.60
19060;DHT22;9663;48.996;8.334;2022-07-24T15:53:20;50.20;18.60
19060;DHT22;9663;48.996;8.334;2022-07-24T15:55:47;50.20;18.20
19060;DHT22;9663;48.996;8.334;2022-07-24T15:58:12;50.20;18.10
19060;DHT22;9663;48.996;8.334;2022-07-24T16:00:38;50.30;18.10
19060;DHT22;9663;48.996;8.334;2022-07-24T16:03:04;50.30;18.10
19060;DHT22;9663;48.996;8.334;2022-07-24T16:05:30;50.30;18.00
19060;DHT22;9663;48.996;8.334;2022-07-24T16:07:56;50.40;17.90
19060;DHT22;9663;48.996;8.334;2022-07-24T16:10:22;50.30;17.80
19060;DHT22;9663;48.996;8.334;2022-07-24T16:12:49;50.30;17.50
19060;DHT22;9663;48.996;8.334;2022-07-24T16:15:15;50.10;17.20
19060;DHT22;9663;48.996;8.334;2022-07-24T16:17:42;49.90;17.20
19060;DHT22;9663;48.996;8.334;2022-07-24T16:20:10;49.70;17.20
19060;DHT22;9663;48.996;8.334;2022-07-24T16:22:37;49.50;17.00
19060;DHT22;9663;48.996;8.334;2022-07-24T16:25:04;49.30;17.20
19060;DHT22;9663;48.996;8.334;2022-07-24T16:27:31;49.10;17.50